Alhaurin de la Torre, Spain
Current Conditions -  °F | °C
As of 5:30 AM on Sunday 21 Dec 2014 (Local Time) from LEMG Reporting Station
Broken Clouds Broken Clouds  
Wind Chill: 54°   Ceiling: 2200
Heat Index: 54°   Visibility: 4mi
Dew Point: 52°   Wind: 3mph
Humidity: 94%   Direction: 310°NW
Pressure: 30.42"   Gusts: NA
Location:  36.66°N, 4.56°W
Report Text: LEMG 210430Z 31003KT 7000 BKN022 12/11 Q1030 NOSIG
Loading
Personal Weather Stations






























Interactive Weather Map New forecast layout! Learn more

10-Day Weather Forecast

Advertisements
Track Severe Weather on mobile